createdAt,value
2023-05-21T00:01:45.262Z,14.98
2023-05-21T00:04:12.651Z,14.89
2023-05-21T00:06:39.707Z,14.82
2023-05-21T00:09:07.539Z,14.76
2023-05-21T00:11:34.659Z,14.70
2023-05-21T00:14:01.817Z,14.62
2023-05-21T00:16:28.975Z,14.58
2023-05-21T00:18:57.683Z,14.49
2023-05-21T00:21:25.972Z,14.40
2023-05-21T00:23:53.894Z,14.32
2023-05-21T00:26:21.371Z,14.24
2023-05-21T00:28:48.666Z,14.19
2023-05-21T00:31:16.841Z,14.15
2023-05-21T00:33:44.522Z,14.11
2023-05-21T00:36:14.087Z,14.07
2023-05-21T00:38:43.363Z,14.04
2023-05-21T00:41:10.780Z,14.01
2023-05-21T00:43:41.645Z,14.00
2023-05-21T00:49:53.500Z,14.00
2023-05-21T00:52:23.330Z,13.91
2023-05-21T00:54:53.009Z,13.89
2023-05-21T00:57:25.747Z,13.88
2023-05-21T00:59:54.832Z,13.87
2023-05-21T01:02:24.636Z,13.85
2023-05-21T01:04:56.460Z,13.82
2023-05-21T01:07:25.349Z,13.79
2023-05-21T01:09:58.697Z,13.74
2023-05-21T01:12:31.956Z,13.70
2023-05-21T01:15:03.186Z,13.67
2023-05-21T01:17:34.878Z,13.66
2023-05-21T01:20:12.804Z,13.62
2023-05-21T01:22:50.319Z,13.59
2023-05-21T01:25:18.867Z,13.59
2023-05-21T01:27:48.286Z,13.58
2023-05-21T01:30:19.814Z,13.60
2023-05-21T01:33:02.652Z,13.60
2023-05-21T01:35:44.551Z,13.56
2023-05-21T01:38:28.619Z,13.56
2023-05-21T01:41:06.302Z,13.57
2023-05-21T01:43:39.833Z,13.55
2023-05-21T01:46:19.096Z,13.52
2023-05-21T01:48:49.372Z,13.46
2023-05-21T01:51:18.278Z,13.44
2023-05-21T01:53:46.676Z,13.42
2023-05-21T01:56:16.203Z,13.41
2023-05-21T01:58:48.725Z,13.37
2023-05-21T02:01:20.486Z,13.35
2023-05-21T02:03:48.978Z,13.34
2023-05-21T02:06:17.801Z,13.27
2023-05-21T02:08:46.564Z,13.20
2023-05-21T02:11:16.046Z,13.11
2023-05-21T02:13:46.403Z,13.04
2023-05-21T02:16:16.696Z,12.95
2023-05-21T02:18:45.072Z,12.89
2023-05-21T02:21:13.644Z,12.87
2023-05-21T02:23:42.940Z,12.80
2023-05-21T02:26:11.364Z,12.78
2023-05-21T02:28:40.775Z,12.77
2023-05-21T02:31:09.162Z,12.76
2023-05-21T02:33:39.952Z,12.74
2023-05-21T02:36:13.321Z,12.73
2023-05-21T02:38:44.714Z,12.72
2023-05-21T02:41:13.054Z,12.70
2023-05-21T02:43:41.533Z,12.69
2023-05-21T02:46:10.088Z,12.68
2023-05-21T02:48:38.655Z,12.68
2023-05-21T02:51:10.158Z,12.69
2023-05-21T02:53:39.770Z,12.70
2023-05-21T02:56:08.174Z,12.71
2023-05-21T02:58:36.764Z,12.72
2023-05-21T03:01:05.312Z,12.74
2023-05-21T03:03:33.946Z,12.73
2023-05-21T03:06:02.629Z,12.75
2023-05-21T03:09:11.188Z,12.74
2023-05-21T03:11:39.650Z,12.71
2023-05-21T03:14:08.069Z,12.78
2023-05-21T03:16:36.507Z,12.84
2023-05-21T03:19:04.950Z,12.88
2023-05-21T03:21:33.991Z,12.90
2023-05-21T03:24:06.132Z,12.96
2023-05-21T03:26:34.550Z,12.96
2023-05-21T03:29:02.877Z,12.96
2023-05-21T03:31:31.592Z,12.95
2023-05-21T03:34:08.741Z,12.91
2023-05-21T03:36:37.073Z,12.91
2023-05-21T03:39:05.668Z,12.94
2023-05-21T03:41:35.043Z,12.96
2023-05-21T03:44:08.526Z,13.00
2023-05-21T03:46:50.436Z,13.07
2023-05-21T03:49:23.256Z,13.14
2023-05-21T03:51:52.654Z,13.21
2023-05-21T03:54:21.635Z,13.29
2023-05-21T03:56:51.689Z,13.36
2023-05-21T03:59:21.051Z,13.41
2023-05-21T04:01:49.520Z,13.47
2023-05-21T04:04:18.497Z,13.54
2023-05-21T04:06:46.934Z,13.61
2023-05-21T04:09:15.391Z,13.71
2023-05-21T04:11:44.235Z,13.80
2023-05-21T04:14:13.032Z,13.86
2023-05-21T04:16:44.259Z,13.94
2023-05-21T04:19:12.823Z,14.05
2023-05-21T04:21:42.287Z,14.17
2023-05-21T04:24:12.008Z,14.29
2023-05-21T04:27:01.768Z,14.45
2023-05-21T04:29:32.058Z,14.59
2023-05-21T04:32:00.597Z,14.72
2023-05-21T04:34:34.306Z,14.80
2023-05-21T04:37:03.040Z,14.88
2023-05-21T04:39:31.820Z,14.97
2023-05-21T04:42:00.367Z,15.07
2023-05-21T04:44:29.477Z,15.14
2023-05-21T04:46:59.140Z,15.19
2023-05-21T04:49:28.052Z,15.25
2023-05-21T04:51:57.345Z,15.29
2023-05-21T04:54:25.946Z,15.33
2023-05-21T04:56:55.243Z,15.35
2023-05-21T04:59:24.079Z,15.39
2023-05-21T05:01:53.012Z,15.44
2023-05-21T05:04:24.271Z,15.47
2023-05-21T05:06:53.153Z,15.51
2023-05-21T05:09:25.339Z,15.53
2023-05-21T05:11:54.424Z,15.59
2023-05-21T05:14:22.899Z,15.66
2023-05-21T05:16:52.320Z,15.72
2023-05-21T05:19:21.444Z,15.78
2023-05-21T05:21:49.985Z,15.82
2023-05-21T05:24:19.006Z,15.90
2023-05-21T05:26:48.171Z,15.96
2023-05-21T05:29:16.660Z,15.99
2023-05-21T05:31:45.384Z,16.01
2023-05-21T05:34:14.626Z,16.04
2023-05-21T05:36:44.339Z,16.07
2023-05-21T05:39:12.782Z,16.09
2023-05-21T05:41:41.746Z,16.16
2023-05-21T05:44:10.988Z,16.24
2023-05-21T05:46:39.871Z,16.31
2023-05-21T05:49:08.727Z,16.35
2023-05-21T05:51:37.578Z,16.37
2023-05-21T05:54:06.365Z,16.41
2023-05-21T05:56:35.381Z,16.45
2023-05-21T05:59:06.408Z,16.47
2023-05-21T06:01:37.140Z,16.50
2023-05-21T06:04:06.428Z,16.54
2023-05-21T06:06:35.240Z,16.56
2023-05-21T06:09:05.144Z,16.61
2023-05-21T06:11:33.973Z,16.69
2023-05-21T06:14:02.708Z,16.80
2023-05-21T06:16:32.018Z,16.89
2023-05-21T06:19:00.759Z,16.97
2023-05-21T06:21:29.504Z,17.02
2023-05-21T06:23:58.813Z,17.07
2023-05-21T06:26:27.469Z,17.12
2023-05-21T06:28:56.903Z,17.18
2023-05-21T06:31:32.736Z,17.18
2023-05-21T06:34:01.623Z,17.17
2023-05-21T06:36:32.871Z,17.17
2023-05-21T06:39:01.453Z,17.22
2023-05-21T06:41:30.343Z,17.30
2023-05-21T06:44:01.740Z,17.38
2023-05-21T06:46:49.015Z,17.52
2023-05-21T06:49:17.746Z,17.55
2023-05-21T06:51:46.484Z,17.53
2023-05-21T06:54:15.269Z,17.56
2023-05-21T06:56:44.192Z,17.63
2023-05-21T06:59:13.055Z,17.71
2023-05-21T07:01:44.819Z,17.75
2023-05-21T07:04:15.030Z,17.79
2023-05-21T07:06:44.752Z,17.88
2023-05-21T07:09:13.327Z,17.94
2023-05-21T07:11:42.116Z,18.02
2023-05-21T07:14:11.118Z,18.08
2023-05-21T07:16:40.310Z,18.14
2023-05-21T07:19:09.992Z,18.21
2023-05-21T07:21:39.032Z,18.29
2023-05-21T07:24:09.833Z,18.33
2023-05-21T07:26:40.806Z,18.45
2023-05-21T07:29:09.784Z,18.49
2023-05-21T07:31:38.423Z,18.58
2023-05-21T07:34:07.676Z,18.65
2023-05-21T07:36:36.286Z,18.74
2023-05-21T07:39:05.267Z,18.80
2023-05-21T07:41:37.718Z,18.79
2023-05-21T07:44:10.022Z,18.80
2023-05-21T07:46:41.964Z,18.80
2023-05-21T07:49:17.043Z,18.86
2023-05-21T07:51:49.862Z,18.95
2023-05-21T07:54:18.383Z,18.95
2023-05-21T07:56:47.572Z,18.98
2023-05-21T07:59:29.322Z,18.98
2023-05-21T08:01:58.111Z,19.01
2023-05-21T08:04:27.440Z,19.12
2023-05-21T08:06:57.030Z,19.18
2023-05-21T08:09:25.849Z,19.19
2023-05-21T08:11:54.804Z,19.24
2023-05-21T08:14:23.493Z,19.29
2023-05-21T08:16:52.421Z,19.30
2023-05-21T08:19:21.661Z,19.33
2023-05-21T08:21:52.744Z,19.40
2023-05-21T08:24:22.336Z,19.52
2023-05-21T08:26:51.470Z,19.61
2023-05-21T08:29:20.314Z,19.61
2023-05-21T08:31:49.388Z,19.62
2023-05-21T08:34:22.003Z,19.68
2023-05-21T08:37:02.288Z,19.71
2023-05-21T08:39:53.658Z,19.85
2023-05-21T08:42:37.677Z,19.96
2023-05-21T08:45:07.910Z,20.05
2023-05-21T08:47:39.948Z,20.12
2023-05-21T08:50:19.465Z,20.18
2023-05-21T08:52:48.629Z,20.26
2023-05-21T08:55:17.511Z,20.30
2023-05-21T08:57:46.317Z,20.32
2023-05-21T09:00:17.085Z,20.37
2023-05-21T09:02:47.734Z,20.40
2023-05-21T09:05:17.074Z,20.42
2023-05-21T09:07:58.070Z,20.53
2023-05-21T09:10:40.450Z,20.59
2023-05-21T09:13:11.352Z,20.61
2023-05-21T09:15:40.079Z,20.69
2023-05-21T09:18:08.606Z,20.74
2023-05-21T09:20:47.080Z,20.77
2023-05-21T09:23:18.364Z,20.85
2023-05-21T09:25:49.588Z,21.01
2023-05-21T09:28:25.935Z,21.01
2023-05-21T09:30:54.599Z,21.09
2023-05-21T09:33:29.982Z,21.22
2023-05-21T09:35:59.381Z,21.26
2023-05-21T09:38:29.812Z,21.32
2023-05-21T09:40:59.207Z,21.36
2023-05-21T09:43:28.698Z,21.36
2023-05-21T09:46:00.322Z,21.45
2023-05-21T09:48:39.809Z,21.61
2023-05-21T09:51:18.555Z,21.73
2023-05-21T09:54:05.458Z,21.88
2023-05-21T09:56:35.042Z,21.93
2023-05-21T09:59:07.048Z,21.96
2023-05-21T10:01:36.475Z,22.07
2023-05-21T10:04:08.706Z,22.12
2023-05-21T10:06:48.324Z,22.17
2023-05-21T10:09:19.760Z,22.22
2023-05-21T10:11:50.186Z,22.33
2023-05-21T10:14:25.669Z,22.44
2023-05-21T10:16:56.244Z,22.53
2023-05-21T10:19:25.930Z,22.64
2023-05-21T10:21:56.108Z,22.79
2023-05-21T10:24:25.508Z,22.83
2023-05-21T10:26:54.482Z,22.89
2023-05-21T10:29:23.834Z,22.98
2023-05-21T10:31:53.357Z,23.07
2023-05-21T10:34:23.512Z,23.12
2023-05-21T10:36:55.622Z,23.05
2023-05-21T10:39:25.781Z,23.07
2023-05-21T10:42:13.718Z,23.17
2023-05-21T10:45:04.164Z,23.30
2023-05-21T10:48:02.037Z,23.45
2023-05-21T10:50:58.648Z,23.42
2023-05-21T10:54:04.756Z,23.27
2023-05-21T10:56:41.493Z,23.12
2023-05-21T10:59:29.002Z,23.13
2023-05-21T11:01:58.365Z,23.28
2023-05-21T11:04:28.018Z,23.36
2023-05-21T11:06:59.213Z,23.34
2023-05-21T11:09:27.907Z,23.38
2023-05-21T11:12:01.251Z,23.43
2023-05-21T11:14:35.622Z,23.41
2023-05-21T11:17:16.516Z,23.43
2023-05-21T11:19:51.668Z,23.36
2023-05-21T11:22:29.174Z,23.27
2023-05-21T11:25:02.176Z,23.19
2023-05-21T11:27:41.426Z,23.27
2023-05-21T11:30:14.714Z,23.40
2023-05-21T11:33:08.418Z,23.52
2023-05-21T11:35:46.282Z,23.53
2023-05-21T11:38:14.921Z,23.65
2023-05-21T11:40:56.716Z,23.75
2023-05-21T11:43:27.342Z,23.80
2023-05-21T11:45:56.645Z,23.78
2023-05-21T11:48:27.391Z,23.74
2023-05-21T11:50:58.604Z,23.83
2023-05-21T11:53:30.577Z,23.96
2023-05-21T11:56:02.301Z,24.05
2023-05-21T11:58:32.061Z,24.16
2023-05-21T12:01:00.589Z,24.19
2023-05-21T12:03:30.921Z,24.06
2023-05-21T12:06:06.200Z,24.15
2023-05-21T12:08:36.073Z,24.24
2023-05-21T12:11:05.744Z,24.34
2023-05-21T12:13:36.275Z,24.27
2023-05-21T12:16:06.943Z,24.14
2023-05-21T12:18:38.014Z,24.05
2023-05-21T12:21:07.493Z,24.05
2023-05-21T12:23:36.957Z,24.02
2023-05-21T12:26:06.243Z,23.90
2023-05-21T12:28:35.383Z,23.78
2023-05-21T12:31:03.956Z,23.84
2023-05-21T12:33:35.787Z,24.02
2023-05-21T12:36:05.033Z,24.17
2023-05-21T12:38:33.597Z,24.36
2023-05-21T12:41:06.291Z,24.63
2023-05-21T12:43:35.238Z,24.67
2023-05-21T12:46:03.755Z,24.42
2023-05-21T12:48:32.432Z,24.20
2023-05-21T12:51:02.911Z,23.97
2023-05-21T12:53:38.819Z,23.84
2023-05-21T12:56:11.694Z,23.84
2023-05-21T12:58:41.421Z,23.96
2023-05-21T13:01:12.450Z,24.18
2023-05-21T13:03:43.398Z,24.49
2023-05-21T13:06:12.049Z,24.60
2023-05-21T13:08:40.973Z,24.81
2023-05-21T13:11:09.543Z,24.93
2023-05-21T13:13:37.929Z,24.89
2023-05-21T13:16:06.529Z,24.94
2023-05-21T13:18:35.171Z,24.86
2023-05-21T13:21:03.700Z,24.60
2023-05-21T13:23:32.207Z,24.62
2023-05-21T13:26:00.914Z,24.88
2023-05-21T13:28:29.479Z,24.98
2023-05-21T13:30:57.824Z,25.23
2023-05-21T13:33:26.532Z,25.32
2023-05-21T13:35:55.301Z,25.27
2023-05-21T13:38:23.713Z,25.46
2023-05-21T13:40:52.438Z,25.52
2023-05-21T13:43:21.244Z,25.48
2023-05-21T13:45:50.040Z,25.21
2023-05-21T13:48:18.584Z,25.04
2023-05-21T13:50:47.282Z,24.83
2023-05-21T13:53:15.892Z,24.90
2023-05-21T13:55:47.841Z,24.98
2023-05-21T13:58:16.419Z,24.88
2023-05-21T14:00:44.968Z,24.82
2023-05-21T14:03:13.351Z,24.83
2023-05-21T14:05:41.992Z,24.75
2023-05-21T14:08:10.721Z,24.67
2023-05-21T14:10:39.204Z,24.58
2023-05-21T14:13:18.848Z,24.43
2023-05-21T14:15:48.669Z,24.28
2023-05-21T14:18:17.437Z,24.21
2023-05-21T14:20:46.004Z,24.16
2023-05-21T14:23:15.202Z,24.22
2023-05-21T14:25:44.078Z,24.21
2023-05-21T14:28:12.935Z,24.24
2023-05-21T14:30:41.672Z,24.37
2023-05-21T14:33:10.345Z,24.46
2023-05-21T14:35:39.084Z,24.62
2023-05-21T14:38:07.584Z,24.87
2023-05-21T14:40:36.138Z,24.87
2023-05-21T14:43:05.874Z,24.87
2023-05-21T14:45:36.037Z,25.06
2023-05-21T14:48:12.034Z,25.21
2023-05-21T14:50:41.233Z,25.41
2023-05-21T14:53:11.337Z,25.36
2023-05-21T14:55:40.172Z,25.25
2023-05-21T14:58:08.990Z,24.97
2023-05-21T15:00:38.626Z,24.75
2023-05-21T15:03:07.241Z,24.56
2023-05-21T15:05:36.449Z,24.50
2023-05-21T15:08:06.291Z,24.57
2023-05-21T15:10:35.156Z,24.50
2023-05-21T15:13:03.988Z,24.40
2023-05-21T15:15:32.429Z,24.40
2023-05-21T15:18:00.829Z,24.39
2023-05-21T15:20:29.271Z,24.37
2023-05-21T15:23:15.393Z,24.33
2023-05-21T15:25:46.311Z,24.32
2023-05-21T15:28:14.694Z,24.29
2023-05-21T15:30:43.244Z,24.26
2023-05-21T15:33:12.027Z,24.27
2023-05-21T15:35:41.253Z,24.25
2023-05-21T15:38:10.120Z,24.16
2023-05-21T15:40:42.063Z,24.09
2023-05-21T15:43:11.062Z,24.05
2023-05-21T15:45:39.791Z,24.04
2023-05-21T15:48:09.101Z,24.01
2023-05-21T15:50:38.292Z,23.88
2023-05-21T15:53:06.732Z,23.76
2023-05-21T15:55:35.262Z,23.65
2023-05-21T15:58:04.396Z,23.59
2023-05-21T16:00:32.779Z,23.54
2023-05-21T16:03:01.313Z,23.51
2023-05-21T16:05:30.000Z,23.48
2023-05-21T16:07:58.600Z,23.46
2023-05-21T16:10:27.215Z,23.44
2023-05-21T16:12:55.746Z,23.48
2023-05-21T16:15:24.179Z,23.46
2023-05-21T16:17:52.819Z,23.37
2023-05-21T16:20:22.305Z,23.30
2023-05-21T16:22:51.510Z,23.24
2023-05-21T16:25:20.152Z,23.25
2023-05-21T16:27:49.112Z,23.23
2023-05-21T16:30:17.733Z,23.20
2023-05-21T16:32:46.301Z,23.17
2023-05-21T16:38:54.182Z,23.20
2023-05-21T16:41:22.962Z,23.13
2023-05-21T16:43:54.501Z,23.11
2023-05-21T16:46:23.047Z,23.14
2023-05-21T16:48:51.470Z,23.11
2023-05-21T16:51:19.903Z,23.07
2023-05-21T16:53:48.252Z,23.07
2023-05-21T16:56:16.929Z,23.05
2023-05-21T16:58:45.548Z,23.04
2023-05-21T17:01:14.238Z,23.03
2023-05-21T17:03:43.494Z,23.02
2023-05-21T17:06:12.311Z,23.02
2023-05-21T17:08:42.148Z,23.01
2023-05-21T17:11:10.845Z,22.98
2023-05-21T17:13:39.224Z,22.92
2023-05-21T17:16:07.877Z,22.87
2023-05-21T17:18:36.363Z,22.84
2023-05-21T17:21:05.030Z,22.81
2023-05-21T17:23:33.558Z,22.76
2023-05-21T17:26:02.465Z,22.71
2023-05-21T17:28:30.983Z,22.64
2023-05-21T17:30:59.355Z,22.57
2023-05-21T17:33:28.362Z,22.51
2023-05-21T17:35:57.255Z,22.45
2023-05-21T17:38:25.707Z,22.38
2023-05-21T17:40:54.438Z,22.30
2023-05-21T17:43:22.918Z,22.24
2023-05-21T17:45:51.263Z,22.18
2023-05-21T17:48:19.977Z,22.10
2023-05-21T17:50:48.557Z,22.06
2023-05-21T17:53:18.228Z,22.00
2023-05-21T17:55:46.725Z,21.94
2023-05-21T17:58:15.940Z,21.86
2023-05-21T18:00:44.553Z,21.77
2023-05-21T18:03:13.283Z,21.69
2023-05-21T18:05:42.145Z,21.64
2023-05-21T18:08:10.723Z,21.59
2023-05-21T18:10:39.311Z,21.54
2023-05-21T18:13:07.926Z,21.51
2023-05-21T18:15:36.584Z,21.44
2023-05-21T18:18:05.549Z,21.39
2023-05-21T18:20:34.793Z,21.31
2023-05-21T18:23:03.711Z,21.22
2023-05-21T18:25:32.136Z,21.14
2023-05-21T18:28:00.965Z,21.06
2023-05-21T18:30:29.722Z,20.97
2023-05-21T18:32:58.186Z,20.92
2023-05-21T18:35:27.815Z,20.83
2023-05-21T18:37:56.778Z,20.77
2023-05-21T18:40:30.399Z,20.68
2023-05-21T18:43:00.779Z,20.61
2023-05-21T18:45:30.311Z,20.53
2023-05-21T18:47:59.959Z,20.48
2023-05-21T18:50:29.341Z,20.42
2023-05-21T18:52:58.794Z,20.36
2023-05-21T18:55:27.910Z,20.28
2023-05-21T18:57:57.586Z,20.23
2023-05-21T19:00:27.132Z,20.15
2023-05-21T19:02:56.692Z,20.10
2023-05-21T19:05:26.060Z,20.07
2023-05-21T19:07:57.233Z,20.01
2023-05-21T19:10:28.143Z,19.93
2023-05-21T19:12:57.538Z,19.85
2023-05-21T19:15:26.221Z,19.78
2023-05-21T19:17:54.742Z,19.71
2023-05-21T19:20:24.878Z,19.64
2023-05-21T19:22:54.686Z,19.56
2023-05-21T19:25:24.743Z,19.48
2023-05-21T19:27:54.442Z,19.39
2023-05-21T19:30:25.138Z,19.31
2023-05-21T19:32:54.247Z,19.26
2023-05-21T19:35:22.849Z,19.21
2023-05-21T19:37:51.363Z,19.14
2023-05-21T19:40:23.169Z,19.10
2023-05-21T19:42:52.497Z,19.05
2023-05-21T19:45:21.757Z,19.01
2023-05-21T19:47:50.292Z,18.95
2023-05-21T19:50:19.359Z,18.91
2023-05-21T19:52:47.732Z,18.88
2023-05-21T19:55:21.178Z,18.81
2023-05-21T19:57:49.907Z,18.75
2023-05-21T20:00:19.800Z,18.69
2023-05-21T20:02:48.961Z,18.64
2023-05-21T20:05:20.662Z,18.60
2023-05-21T20:07:50.115Z,18.54
2023-05-21T20:10:18.700Z,18.48
2023-05-21T20:12:47.395Z,18.46
2023-05-21T20:15:16.791Z,18.41
2023-05-21T20:17:45.515Z,18.39
2023-05-21T20:20:14.060Z,18.35
2023-05-21T20:22:42.893Z,18.32
2023-05-21T20:25:11.392Z,18.28
2023-05-21T20:27:40.143Z,18.24
2023-05-21T20:30:08.991Z,18.19
2023-05-21T20:32:37.713Z,18.13
2023-05-21T20:35:10.152Z,18.08
2023-05-21T20:37:38.559Z,18.05
2023-05-21T20:40:09.371Z,18.00
2023-05-21T20:42:38.174Z,17.97
2023-05-21T20:45:06.944Z,17.93
2023-05-21T20:47:36.497Z,17.89
2023-05-21T20:50:07.921Z,17.83
2023-05-21T20:52:36.575Z,17.78
2023-05-21T20:55:05.767Z,17.71
2023-05-21T20:57:34.634Z,17.62
2023-05-21T21:00:05.141Z,17.54
2023-05-21T21:02:33.997Z,17.47
2023-05-21T21:05:03.727Z,17.44
2023-05-21T21:07:33.666Z,17.40
2023-05-21T21:10:02.132Z,17.37
2023-05-21T21:12:32.633Z,17.31
2023-05-21T21:15:03.768Z,17.28
2023-05-21T21:17:32.323Z,17.23
2023-05-21T21:20:00.849Z,17.18
2023-05-21T21:22:29.299Z,17.13
2023-05-21T21:24:57.816Z,17.08
2023-05-21T21:27:26.318Z,17.04
2023-05-21T21:29:54.684Z,17.00
2023-05-21T21:32:23.144Z,16.96
2023-05-21T21:34:51.659Z,16.95
2023-05-21T21:37:20.238Z,16.99
2023-05-21T21:39:48.921Z,17.04
2023-05-21T21:42:17.792Z,17.08
2023-05-21T21:44:47.445Z,17.12
2023-05-21T21:47:16.106Z,17.17
2023-05-21T21:49:44.688Z,17.21
2023-05-21T21:52:15.102Z,17.25
2023-05-21T21:54:44.137Z,17.27
2023-05-21T21:57:12.604Z,17.25
2023-05-21T21:59:49.137Z,17.24
2023-05-21T22:02:22.734Z,17.22
2023-05-21T22:04:51.594Z,17.19
2023-05-21T22:07:20.959Z,17.16
2023-05-21T22:09:49.466Z,17.10
2023-05-21T22:12:17.770Z,17.06
2023-05-21T22:14:46.612Z,17.02
2023-05-21T22:17:18.065Z,16.97
2023-05-21T22:19:46.456Z,16.90
2023-05-21T22:22:26.209Z,16.83
2023-05-21T22:24:55.007Z,16.75
2023-05-21T22:27:23.347Z,16.69
2023-05-21T22:29:51.686Z,16.59
2023-05-21T22:32:20.523Z,16.47
2023-05-21T22:34:48.837Z,16.38
2023-05-21T22:37:18.034Z,16.28
2023-05-21T22:39:46.699Z,16.19
2023-05-21T22:42:15.209Z,16.13
2023-05-21T22:44:43.932Z,16.07
2023-05-21T22:47:12.275Z,16.08
2023-05-21T22:49:40.917Z,16.08
2023-05-21T22:52:41.396Z,16.08
2023-05-21T22:55:22.293Z,16.05
2023-05-21T22:57:51.084Z,16.01
2023-05-21T23:00:30.624Z,15.97
2023-05-21T23:03:04.839Z,15.93
2023-05-21T23:05:40.899Z,15.90
2023-05-21T23:08:12.288Z,15.86
2023-05-21T23:10:41.112Z,15.84
2023-05-21T23:13:12.517Z,15.82
2023-05-21T23:15:44.099Z,15.74
2023-05-21T23:18:12.987Z,15.64
2023-05-21T23:20:49.021Z,15.50
2023-05-21T23:23:21.792Z,15.44
2023-05-21T23:25:53.676Z,15.37
2023-05-21T23:28:22.099Z,15.23
2023-05-21T23:30:56.850Z,15.11
2023-05-21T23:33:25.947Z,14.99
2023-05-21T23:35:55.723Z,14.90
2023-05-21T23:38:28.041Z,14.82
2023-05-21T23:41:07.864Z,14.74
2023-05-21T23:43:39.148Z,14.60
2023-05-21T23:46:08.765Z,14.50
2023-05-21T23:48:39.217Z,14.38
2023-05-21T23:51:29.341Z,14.23
2023-05-21T23:54:09.195Z,14.14
2023-05-21T23:56:38.043Z,14.06
2023-05-21T23:59:07.855Z,13.99
